This is the latest recevied weather packets stored in our database for station/object KC0CAU. If no packets are shown the sender has not sent any weather packets the latest 10 day(s).
| Time | Temp. | Humidity | Pressure | Rain* | Wind** | Luminosity | Snow |
|---|---|---|---|---|---|---|---|
| 1777882546 | 8.89° C | 73% | 1002.6 hPa | 0 mm | - | - | - |
| 1777881655 | 8.89° C | 73% | 1002.3 hPa | 0 mm | - | - | - |
| 1777880739 | 8.89° C | 72% | 1002 hPa | 0 mm | - | - | - |
| 1777879837 | 9.44° C | 71% | 1002 hPa | 0 mm | - | - | - |
| 1777878935 | 9.44° C | 70% | 1002.1 hPa | 0 mm | - | - | - |
| 1777878033 | 9.44° C | 68% | 1001.8 hPa | 0 mm | - | - | - |
| 1777877134 | 10° C | 67% | 1001.8 hPa | 0 mm | - | - | - |
| 1777876229 | 10° C | 67% | 1001.8 hPa | 0 mm | - | - | - |
| 1777875331 | 10° C | 67% | 1002 hPa | 0 mm | - | - | - |
| 1777874427 | 10° C | 67% | 1001.8 hPa | 0 mm | - | - | - |
| 1777873525 | 10.56° C | 65% | 1001.5 hPa | 0 mm | - | - | - |
| 1777872620 | 11.11° C | 65% | 1001.2 hPa | 0 mm | - | - | - |
| 1777871716 | 11.67° C | 63% | 1001 hPa | 0 mm | - | - | - |
| 1777870813 | 12.22° C | 59% | 1000.5 hPa | 0 mm | - | - | - |
| 1777869912 | 18.33° C | 34% | 998.5 hPa | 0 mm | - | - | - |
| 1777869013 | 18.33° C | 34% | 998.1 hPa | 0 mm | - | - | - |
| 1777868110 | 18.33° C | 36% | 998.1 hPa | 0 mm | - | - | - |
| 1777867223 | 18.33° C | 37% | 998.3 hPa | 0 mm | - | - | - |
| 1777866309 | 18.33° C | 39% | 998.4 hPa | 0 mm | - | - | - |
| 1777865406 | 18.33° C | 39% | 998.6 hPa | 0 mm | - | - | - |
| 1777864505 | 18.89° C | 39% | 998.8 hPa | 0 mm | - | - | - |
| 1777863603 | 18.89° C | 38% | 999.1 hPa | 0 mm | - | - | - |
| 1777862701 | 19.44° C | 37% | 999.4 hPa | 0 mm | - | - | - |
| 1777861862 | 19.44° C | 37% | 999.8 hPa | 0 mm | - | - | - |
| 1777860958 | 20° C | 36% | 999.8 hPa | 0 mm | - | - | - |
* Rain latest hour (hover to see other rain measurements)
** Current wind speed in m/s (hover to see current wind gust speed)